Time;durP1;ratioP1;P1;durP2;ratioP2;P2;SDS_P1;SDS_P2;PMS_P1;PMS_P2;Temp;Humidity;BMP_temperature;BMP_pressure;BME280_temperature;BME280_humidity;BME280_pressure;Samples;Min_cycle;Max_cycle;Signal;HPM_P1;HPM_P2
2022/07/15 00:02:17;;;;;;;1999.90;999.90;;;;;;;;;;5100574;27;20476;-73
2022/07/15 00:04:46;;;;;;;1999.90;999.90;;;;;;;;;;5099741;27;20483;-72
2022/07/15 00:07:14;;;;;;;1999.90;999.90;;;;;;;;;;5100668;27;20467;-74
2022/07/15 00:12:28;;;;;;;1999.90;999.90;;;;;;;;;;5111993;27;20400;-72
2022/07/15 00:14:56;;;;;;;1999.90;999.90;;;;;;;;;;5074176;27;20891;-73
2022/07/15 00:17:24;;;;;;;1999.90;999.90;;;;;;;;;;5096348;27;20416;-73
2022/07/15 00:19:52;;;;;;;1999.90;999.90;;;;;;;;;;5099548;27;20419;-72
2022/07/15 00:22:19;;;;;;;1999.90;999.90;;;;;;;;;;5096815;27;20440;-72
2022/07/15 00:24:49;;;;;;;1999.90;999.90;;;;;;;;;;5110450;27;20422;-74
2022/07/15 00:27:16;;;;;;;1999.90;999.90;;;;;;;;;;5094842;27;20429;-72
2022/07/15 00:29:44;;;;;;;1999.90;999.90;;;;;;;;;;5077742;28;20411;-74
2022/07/15 00:32:13;;;;;;;1999.90;999.90;;;;;;;;;;5095062;27;20399;-74
2022/07/15 00:34:40;;;;;;;1999.90;999.90;;;;;;;;;;5097688;27;20391;-73
2022/07/15 00:37:08;;;;;;;1999.90;999.90;;;;;;;;;;5097541;27;20412;-73
2022/07/15 00:39:36;;;;;;;1999.90;999.90;;;;;;;;;;5078019;28;20411;-72
2022/07/15 00:42:05;;;;;;;1999.90;999.90;;;;;;;;;;5095071;27;20410;-72
2022/07/15 00:44:33;;;;;;;1999.90;999.90;;;;;;;;;;5095623;27;20419;-73
2022/07/15 00:47:01;;;;;;;1999.90;999.90;;;;;;;;;;5095448;27;20392;-72
2022/07/15 00:49:29;;;;;;;1999.90;999.90;;;;;;;;;;5094091;27;20411;-73
2022/07/15 00:51:57;;;;;;;1999.90;999.90;;;;;;;;;;5093451;27;20390;-73
2022/07/15 00:54:28;;;;;;;1999.90;999.90;;;;;;;;;;5096321;27;20409;-75
2022/07/15 00:56:57;;;;;;;1999.90;999.90;;;;;;;;;;5090505;27;21470;-73
2022/07/15 00:59:29;;;;;;;1999.90;999.90;;;;;;;;;;5112284;27;20395;-73
2022/07/15 01:01:57;;;;;;;1999.90;999.90;;;;;;;;;;5091242;27;20827;-72
2022/07/15 01:04:27;;;;;;;1999.90;999.90;;;;;;;;;;5091627;27;20687;-72
2022/07/15 01:06:55;;;;;;;1999.90;999.90;;;;;;;;;;5092615;27;20392;-72
2022/07/15 01:09:23;;;;;;;1999.90;999.90;;;;;;;;;;5092782;27;20439;-73
2022/07/15 01:11:51;;;;;;;1999.90;999.90;;;;;;;;;;5089054;27;20387;-73
2022/07/15 01:14:19;;;;;;;1999.90;999.90;;;;;;;;;;5075685;27;20403;-73
2022/07/15 01:16:50;;;;;;;1999.90;999.90;;;;;;;;;;5094940;27;20537;-73
2022/07/15 01:19:19;;;;;;;1999.90;999.90;;;;;;;;;;5070495;27;20419;-75
2022/07/15 01:21:48;;;;;;;1999.90;999.90;;;;;;;;;;5059416;28;20401;-73
2022/07/15 01:24:16;;;;;;;1999.90;999.90;;;;;;;;;;5067350;27;20407;-73
2022/07/15 01:26:52;;;;;;;1999.90;999.90;;;;;;;;;;5094749;27;21301;-74
2022/07/15 01:29:22;;;;;;;1999.90;999.90;;;;;;;;;;5079183;27;20506;-73
2022/07/15 01:31:52;;;;;;;1999.90;999.90;;;;;;;;;;5077288;28;20395;-73
2022/07/15 01:34:20;;;;;;;1999.90;999.90;;;;;;;;;;5094528;27;21259;-74
2022/07/15 01:36:49;;;;;;;1999.90;999.90;;;;;;;;;;5078674;28;20407;-73
2022/07/15 01:39:17;;;;;;;1999.90;999.90;;;;;;;;;;5096161;27;20403;-74
2022/07/15 01:42:04;;;;;;;1999.90;999.90;;;;;;;;;;5092425;27;20398;-73
2022/07/15 01:44:33;;;;;;;1999.90;999.90;;;;;;;;;;5096265;27;20445;-74
2022/07/15 01:47:01;;;;;;;1999.90;999.90;;;;;;;;;;5095313;27;21903;-74
2022/07/15 01:49:31;;;;;;;1999.90;999.90;;;;;;;;;;5070507;28;20450;-73
2022/07/15 01:52:21;;;;;;;1999.90;999.90;;;;;;;;;;5094341;27;20391;-73
2022/07/15 01:54:49;;;;;;;1999.90;999.90;;;;;;;;;;5074531;28;20421;-73
2022/07/15 01:57:17;;;;;;;1999.90;999.90;;;;;;;;;;5073705;27;20386;-73
2022/07/15 01:59:53;;;;;;;1999.90;999.90;;;;;;;;;;5092519;27;20414;-74
2022/07/15 02:02:43;;;;;;;1999.90;999.90;;;;;;;;;;5087247;27;20589;-73
2022/07/15 02:05:13;;;;;;;1999.90;999.90;;;;;;;;;;5077447;27;20862;-73
2022/07/15 02:07:43;;;;;;;1999.90;999.90;;;;;;;;;;5087619;27;20479;-73
2022/07/15 02:10:14;;;;;;;1999.90;999.90;;;;;;;;;;5094118;27;20420;-73
2022/07/15 02:12:47;;;;;;;1999.90;999.90;;;;;;;;;;5093664;27;20410;-72
2022/07/15 02:15:19;;;;;;;1999.90;999.90;;;;;;;;;;5094577;27;20407;-72
2022/07/15 02:17:53;;;;;;;1999.90;999.90;;;;;;;;;;5069650;27;20383;-74
2022/07/15 02:20:26;;;;;;;1999.90;999.90;;;;;;;;;;5090891;27;20524;-72
2022/07/15 02:22:57;;;;;;;1999.90;999.90;;;;;;;;;;5085736;27;20422;-72
2022/07/15 02:25:26;;;;;;;1999.90;999.90;;;;;;;;;;5078746;27;20407;-72
2022/07/15 02:27:56;;;;;;;1999.90;999.90;;;;;;;;;;5094523;27;20387;-72
2022/07/15 02:30:25;;;;;;;1999.90;999.90;;;;;;;;;;5107583;27;20546;-74
2022/07/15 02:32:52;;;;;;;1999.90;999.90;;;;;;;;;;5077601;28;20431;-74
2022/07/15 02:35:20;;;;;;;1999.90;999.90;;;;;;;;;;5096083;27;20396;-72
2022/07/15 02:37:48;;;;;;;1999.90;999.90;;;;;;;;;;5074995;28;20494;-72
2022/07/15 02:40:17;;;;;;;1999.90;999.90;;;;;;;;;;5094593;27;20797;-72
2022/07/15 02:42:47;;;;;;;1999.90;999.90;;;;;;;;;;5094005;27;20387;-72
2022/07/15 02:45:15;;;;;;;1999.90;999.90;;;;;;;;;;5078364;27;20490;-73
2022/07/15 02:47:44;;;;;;;1999.90;999.90;;;;;;;;;;5096309;27;20403;-74
2022/07/15 02:50:14;;;;;;;1999.90;999.90;;;;;;;;;;5078286;27;20399;-74
2022/07/15 02:52:42;;;;;;;1999.90;999.90;;;;;;;;;;5095937;27;20395;-73
2022/07/15 02:55:11;;;;;;;1999.90;999.90;;;;;;;;;;5079697;27;20423;-74
2022/07/15 02:57:42;;;;;;;1999.90;999.90;;;;;;;;;;5077302;28;20905;-74
2022/07/15 03:00:12;;;;;;;1999.90;999.90;;;;;;;;;;5095924;27;20903;-73
2022/07/15 03:02:40;;;;;;;1999.90;999.90;;;;;;;;;;5076933;27;20510;-72
2022/07/15 03:05:11;;;;;;;1999.90;999.90;;;;;;;;;;5080782;27;20466;-75
2022/07/15 03:07:55;;;;;;;1999.90;999.90;;;;;;;;;;5093878;27;20520;-72
2022/07/15 03:10:39;;;;;;;1999.90;999.90;;;;;;;;;;5112915;27;20411;-73
2022/07/15 03:13:25;;;;;;;1999.90;999.90;;;;;;;;;;5096298;27;20406;-73
2022/07/15 03:16:08;;;;;;;1999.90;999.90;;;;;;;;;;5094703;27;21290;-74
2022/07/15 03:18:52;;;;;;;1999.90;999.90;;;;;;;;;;5095395;27;20657;-74
2022/07/15 03:21:21;;;;;;;1999.90;999.90;;;;;;;;;;5098052;27;20566;-74
2022/07/15 03:23:50;;;;;;;1999.90;999.90;;;;;;;;;;5098402;27;20496;-74
2022/07/15 03:26:17;;;;;;;1999.90;999.90;;;;;;;;;;5076861;27;20366;-73
2022/07/15 03:28:47;;;;;;;1999.90;999.90;;;;;;;;;;5097629;27;20415;-73
2022/07/15 03:31:15;;;;;;;1999.90;999.90;;;;;;;;;;5074707;27;20407;-74
2022/07/15 03:33:44;;;;;;;1999.90;999.90;;;;;;;;;;5078603;27;20386;-72
2022/07/15 03:36:23;;;;;;;1999.90;999.90;;;;;;;;;;5096813;27;20395;-73
2022/07/15 03:38:51;;;;;;;1999.90;999.90;;;;;;;;;;5078972;28;20399;-75
2022/07/15 03:41:20;;;;;;;1999.90;999.90;;;;;;;;;;5080210;27;20411;-74
2022/07/15 03:43:49;;;;;;;1999.90;999.90;;;;;;;;;;5080497;28;20388;-75
2022/07/15 03:46:18;;;;;;;1999.90;999.90;;;;;;;;;;5094660;27;20759;-75
2022/07/15 03:48:50;;;;;;;1999.90;999.90;;;;;;;;;;5080485;28;20404;-74
2022/07/15 03:51:18;;;;;;;1999.90;999.90;;;;;;;;;;5097103;27;21066;-73
2022/07/15 03:53:46;;;;;;;1999.90;999.90;;;;;;;;;;5080074;27;20405;-72
2022/07/15 03:56:14;;;;;;;1999.90;999.90;;;;;;;;;;5077933;28;20423;-73
2022/07/15 03:58:44;;;;;;;1999.90;999.90;;;;;;;;;;5096919;27;20394;-74
2022/07/15 04:01:13;;;;;;;1999.90;999.90;;;;;;;;;;5091232;27;20446;-73
2022/07/15 04:03:41;;;;;;;1999.90;999.90;;;;;;;;;;5089371;27;20403;-74
2022/07/15 04:06:09;;;;;;;1999.90;999.90;;;;;;;;;;5094699;27;20951;-74
2022/07/15 04:08:38;;;;;;;1999.90;999.90;;;;;;;;;;5080161;27;20419;-75
2022/07/15 04:11:07;;;;;;;1999.90;999.90;;;;;;;;;;5074708;27;20438;-74
2022/07/15 04:13:35;;;;;;;1999.90;999.90;;;;;;;;;;5092796;27;21116;-75
2022/07/15 04:16:02;;;;;;;1999.90;999.90;;;;;;;;;;5095424;27;20415;-75
2022/07/15 04:18:32;;;;;;;1999.90;999.90;;;;;;;;;;5077564;27;20400;-75
2022/07/15 04:21:01;;;;;;;1999.90;999.90;;;;;;;;;;5096091;27;20403;-77
2022/07/15 04:23:29;;;;;;;1999.90;999.90;;;;;;;;;;5097688;27;20797;-74
2022/07/15 04:25:57;;;;;;;1999.90;999.90;;;;;;;;;;5078500;27;20419;-75
2022/07/15 04:28:25;;;;;;;1999.90;999.90;;;;;;;;;;5076982;27;20395;-75
2022/07/15 04:30:53;;;;;;;1999.90;999.90;;;;;;;;;;5074081;27;20896;-74
2022/07/15 04:33:23;;;;;;;1999.90;999.90;;;;;;;;;;5078987;27;20399;-75
2022/07/15 04:35:52;;;;;;;1999.90;999.90;;;;;;;;;;5093654;27;20487;-73
2022/07/15 04:38:20;;;;;;;1999.90;999.90;;;;;;;;;;5096282;27;20418;-72
2022/07/15 04:40:47;;;;;;;1999.90;999.90;;;;;;;;;;5078646;28;20417;-73
2022/07/15 04:43:17;;;;;;;1999.90;999.90;;;;;;;;;;5079758;27;20391;-73
2022/07/15 04:45:47;;;;;;;1999.90;999.90;;;;;;;;;;5078313;28;20510;-72
2022/07/15 04:51:06;;;;;;;1999.90;999.90;;;;;;;;;;5074961;28;20518;-73
2022/07/15 04:53:37;;;;;;;1999.90;999.90;;;;;;;;;;5076467;27;20407;-73
2022/07/15 04:56:05;;;;;;;1999.90;999.90;;;;;;;;;;5094875;27;20537;-73
2022/07/15 04:58:35;;;;;;;1999.90;999.90;;;;;;;;;;5074534;27;21251;-73
2022/07/15 05:01:05;;;;;;;1999.90;999.90;;;;;;;;;;5109048;27;20407;-74
2022/07/15 05:03:33;;;;;;;1999.90;999.90;;;;;;;;;;5094541;27;21342;-73
2022/07/15 05:06:01;;;;;;;1999.90;999.90;;;;;;;;;;5089941;27;20423;-74
2022/07/15 05:08:36;;;;;;;1999.90;999.90;;;;;;;;;;5095706;27;20909;-74
2022/07/15 05:11:04;;;;;;;1999.90;999.90;;;;;;;;;;5077398;28;20395;-76
2022/07/15 05:13:33;;;;;;;1999.90;999.90;;;;;;;;;;5079747;28;20435;-75
2022/07/15 05:16:01;;;;;;;1999.90;999.90;;;;;;;;;;5077986;28;20499;-75
2022/07/15 05:18:30;;;;;;;1999.90;999.90;;;;;;;;;;5082047;27;20396;-75
2022/07/15 05:21:01;;;;;;;1999.90;999.90;;;;;;;;;;5091957;27;20446;-75
2022/07/15 05:23:33;;;;;;;1999.90;999.90;;;;;;;;;;5077387;28;20519;-75
2022/07/15 05:26:06;;;;;;;1999.90;999.90;;;;;;;;;;5096358;27;20402;-75
2022/07/15 05:28:37;;;;;;;1999.90;999.90;;;;;;;;;;5094146;27;20406;-76
2022/07/15 05:31:05;;;;;;;1999.90;999.90;;;;;;;;;;5093733;27;20400;-74
2022/07/15 05:33:34;;;;;;;1999.90;999.90;;;;;;;;;;5095853;27;20399;-75
2022/07/15 05:36:05;;;;;;;1999.90;999.90;;;;;;;;;;5093941;27;20407;-74
2022/07/15 05:38:34;;;;;;;1999.90;999.90;;;;;;;;;;5091986;27;20403;-74
2022/07/15 05:41:02;;;;;;;1999.90;999.90;;;;;;;;;;5075568;28;20502;-75
2022/07/15 05:43:31;;;;;;;1999.90;999.90;;;;;;;;;;5078736;28;20472;-76
2022/07/15 05:45:59;;;;;;;1999.90;999.90;;;;;;;;;;5096020;27;20429;-75
2022/07/15 05:48:30;;;;;;;1999.90;999.90;;;;;;;;;;5077224;27;20414;-75
2022/07/15 05:50:58;;;;;;;1999.90;999.90;;;;;;;;;;5076418;27;20406;-75
2022/07/15 05:53:26;;;;;;;1999.90;999.90;;;;;;;;;;5093102;27;20394;-75
2022/07/15 05:55:54;;;;;;;1999.90;999.90;;;;;;;;;;5090318;27;20407;-78
2022/07/15 05:58:23;;;;;;;1999.90;999.90;;;;;;;;;;5077077;27;21282;-76
2022/07/15 06:00:53;;;;;;;1999.90;999.90;;;;;;;;;;5070718;28;20405;-77
2022/07/15 06:03:23;;;;;;;1999.90;999.90;;;;;;;;;;5068606;27;20399;-77
2022/07/15 06:05:51;;;;;;;1999.90;999.90;;;;;;;;;;5088743;27;20391;-77
2022/07/15 06:08:19;;;;;;;1999.90;999.90;;;;;;;;;;5088881;27;20403;-76
2022/07/15 06:10:47;;;;;;;1999.90;999.90;;;;;;;;;;5083560;27;20399;-78
2022/07/15 06:13:15;;;;;;;1999.90;999.90;;;;;;;;;;5071828;27;20466;-77
2022/07/15 06:15:44;;;;;;;1999.90;999.90;;;;;;;;;;5089757;27;20423;-76
2022/07/15 06:18:21;;;;;;;1999.90;999.90;;;;;;;;;;5067666;27;20488;-79
2022/07/15 06:20:50;;;;;;;1999.90;999.90;;;;;;;;;;5072126;27;20418;-78
2022/07/15 06:23:18;;;;;;;1999.90;999.90;;;;;;;;;;5072771;27;20439;-78
2022/07/15 06:25:45;;;;;;;1999.90;999.90;;;;;;;;;;5080481;27;20387;-77
2022/07/15 06:28:14;;;;;;;1999.90;999.90;;;;;;;;;;5093016;27;20391;-77
2022/07/15 06:30:42;;;;;;;1999.90;999.90;;;;;;;;;;5093397;27;20403;-78
2022/07/15 06:33:10;;;;;;;1999.90;999.90;;;;;;;;;;5081822;27;20473;-79
2022/07/15 06:35:39;;;;;;;1999.90;999.90;;;;;;;;;;5097998;27;20398;-77
2022/07/15 06:38:12;;;;;;;1999.90;999.90;;;;;;;;;;5094721;27;20390;-78
2022/07/15 06:40:42;;;;;;;1999.90;999.90;;;;;;;;;;5093807;27;20418;-79
2022/07/15 06:43:10;;;;;;;1999.90;999.90;;;;;;;;;;5094375;27;20851;-79
2022/07/15 06:46:07;;;;;;;1999.90;999.90;;;;;;;;;;5083979;27;20963;-77
2022/07/15 06:48:38;;;;;;;1999.90;999.90;;;;;;;;;;5096428;27;20965;-78
2022/07/15 06:51:07;;;;;;;1999.90;999.90;;;;;;;;;;5079714;27;20407;-77
2022/07/15 06:53:36;;;;;;;1999.90;999.90;;;;;;;;;;5097108;27;20403;-77
2022/07/15 06:56:04;;;;;;;1999.90;999.90;;;;;;;;;;5095231;27;20391;-76
2022/07/15 06:58:32;;;;;;;1999.90;999.90;;;;;;;;;;5096134;27;20868;-77
2022/07/15 07:00:59;;;;;;;1999.90;999.90;;;;;;;;;;5094058;27;20504;-77
2022/07/15 07:03:28;;;;;;;1999.90;999.90;;;;;;;;;;5095927;27;20959;-79
2022/07/15 07:06:18;;;;;;;1999.90;999.90;;;;;;;;;;5080675;27;20387;-76
2022/07/15 07:08:47;;;;;;;1999.90;999.90;;;;;;;;;;5095116;27;22228;-76
2022/07/15 07:11:16;;;;;;;1999.90;999.90;;;;;;;;;;5095594;27;20411;-76
2022/07/15 07:13:45;;;;;;;1999.90;999.90;;;;;;;;;;5098404;27;20503;-76
2022/07/15 07:16:13;;;;;;;1999.90;999.90;;;;;;;;;;5100637;27;20383;-76
2022/07/15 07:18:41;;;;;;;1999.90;999.90;;;;;;;;;;5101813;27;20442;-76
2022/07/15 07:21:09;;;;;;;1999.90;999.90;;;;;;;;;;5098437;27;20592;-75
2022/07/15 07:23:39;;;;;;;1999.90;999.90;;;;;;;;;;5098538;27;21669;-73
2022/07/15 07:26:07;;;;;;;1999.90;999.90;;;;;;;;;;5075374;27;20392;-74
2022/07/15 07:28:35;;;;;;;1999.90;999.90;;;;;;;;;;5095478;27;20410;-75
2022/07/15 07:31:03;;;;;;;1999.90;999.90;;;;;;;;;;5096140;27;20596;-76
2022/07/15 07:33:31;;;;;;;1999.90;999.90;;;;;;;;;;5099425;27;20390;-73
2022/07/15 07:35:59;;;;;;;1999.90;999.90;;;;;;;;;;5100840;27;20892;-76
2022/07/15 07:38:27;;;;;;;1999.90;999.90;;;;;;;;;;5080872;27;21584;-74
2022/07/15 07:40:56;;;;;;;1999.90;999.90;;;;;;;;;;5096594;27;20450;-77
2022/07/15 07:43:24;;;;;;;1999.90;999.90;;;;;;;;;;5098739;27;20933;-73
2022/07/15 07:45:51;;;;;;;1999.90;999.90;;;;;;;;;;5097649;27;20418;-75
2022/07/15 07:48:19;;;;;;;1999.90;999.90;;;;;;;;;;5098270;27;20462;-74
2022/07/15 07:50:48;;;;;;;1999.90;999.90;;;;;;;;;;5081954;28;20420;-75
2022/07/15 07:53:15;;;;;;;1999.90;999.90;;;;;;;;;;5097506;27;20395;-75
2022/07/15 07:55:43;;;;;;;1999.90;999.90;;;;;;;;;;5098229;27;20395;-75
2022/07/15 07:58:15;;;;;;;1999.90;999.90;;;;;;;;;;5098366;27;21193;-76
2022/07/15 08:00:45;;;;;;;1999.90;999.90;;;;;;;;;;5099630;27;20399;-77
2022/07/15 08:03:13;;;;;;;1999.90;999.90;;;;;;;;;;5115654;27;20418;-76
2022/07/15 08:05:41;;;;;;;1999.90;999.90;;;;;;;;;;5098160;27;20459;-76
2022/07/15 08:08:10;;;;;;;1999.90;999.90;;;;;;;;;;5096914;27;20395;-76
2022/07/15 08:10:38;;;;;;;1999.90;999.90;;;;;;;;;;5095889;27;20759;-76
2022/07/15 08:13:15;;;;;;;1999.90;999.90;;;;;;;;;;5096293;27;20390;-76
2022/07/15 08:15:43;;;;;;;1999.90;999.90;;;;;;;;;;5092664;27;22713;-76
2022/07/15 08:18:11;;;;;;;1999.90;999.90;;;;;;;;;;5095789;27;21028;-77
2022/07/15 08:20:39;;;;;;;1999.90;999.90;;;;;;;;;;5080698;28;20417;-76
2022/07/15 08:23:07;;;;;;;1999.90;999.90;;;;;;;;;;5097701;27;20379;-78
2022/07/15 08:25:36;;;;;;;1999.90;999.90;;;;;;;;;;5098031;27;20411;-78
2022/07/15 08:28:05;;;;;;;1999.90;999.90;;;;;;;;;;5099973;27;20683;-78
2022/07/15 08:30:35;;;;;;;1999.90;999.90;;;;;;;;;;5095936;27;20418;-78
2022/07/15 08:33:03;;;;;;;1999.90;999.90;;;;;;;;;;5097280;27;20501;-77
2022/07/15 08:35:32;;;;;;;1999.90;999.90;;;;;;;;;;5097614;27;20403;-77
2022/07/15 08:38:05;;;;;;;1999.90;999.90;;;;;;;;;;5095751;27;20449;-77
2022/07/15 08:40:32;;;;;;;1999.90;999.90;;;;;;;;;;5114635;27;20419;-77
2022/07/15 08:43:00;;;;;;;1999.90;999.90;;;;;;;;;;5096584;27;20936;-77
2022/07/15 08:45:28;;;;;;;1999.90;999.90;;;;;;;;;;5078557;27;20512;-76
2022/07/15 08:47:59;;;;;;;1999.90;999.90;;;;;;;;;;5078317;27;20383;-76
2022/07/15 08:50:28;;;;;;;1999.90;999.90;;;;;;;;;;5096178;27;20415;-77
2022/07/15 08:52:56;;;;;;;1999.90;999.90;;;;;;;;;;5098342;27;20585;-79
2022/07/15 08:55:24;;;;;;;1999.90;999.90;;;;;;;;;;5100139;27;20399;-79
2022/07/15 08:57:52;;;;;;;1999.90;999.90;;;;;;;;;;5099973;27;20425;-79
2022/07/15 09:00:22;;;;;;;1999.90;999.90;;;;;;;;;;5098232;27;20430;-79
2022/07/15 09:02:50;;;;;;;1999.90;999.90;;;;;;;;;;5096854;27;20399;-79
2022/07/15 09:05:26;;;;;;;1999.90;999.90;;;;;;;;;;5080691;27;20396;-79
2022/07/15 09:07:56;;;;;;;1999.90;999.90;;;;;;;;;;5080504;27;20406;-80
2022/07/15 09:10:25;;;;;;;1999.90;999.90;;;;;;;;;;5113194;27;20393;-79
2022/07/15 09:12:53;;;;;;;1999.90;999.90;;;;;;;;;;5096366;27;20407;-79
2022/07/15 09:15:34;;;;;;;1999.90;999.90;;;;;;;;;;5097092;27;20407;-79
2022/07/15 09:18:07;;;;;;;1999.90;999.90;;;;;;;;;;5095536;27;20395;-76
2022/07/15 09:20:36;;;;;;;1999.90;999.90;;;;;;;;;;5093816;27;20860;-75
2022/07/15 09:23:04;;;;;;;1999.90;999.90;;;;;;;;;;5096689;27;20446;-76
2022/07/15 09:25:34;;;;;;;1999.90;999.90;;;;;;;;;;5097911;27;21316;-73
2022/07/15 09:28:02;;;;;;;1999.90;999.90;;;;;;;;;;5081087;28;20387;-73
2022/07/15 09:33:36;;;;;;;1999.90;999.90;;;;;;;;;;5074900;27;20412;-74
2022/07/15 09:36:06;;;;;;;1999.90;999.90;;;;;;;;;;5095368;27;20411;-74
2022/07/15 09:38:35;;;;;;;1999.90;999.90;;;;;;;;;;5096629;27;20391;-74
2022/07/15 09:41:03;;;;;;;1999.90;999.90;;;;;;;;;;5095785;27;20417;-77
2022/07/15 09:43:31;;;;;;;1999.90;999.90;;;;;;;;;;5095875;27;20406;-77
2022/07/15 09:46:00;;;;;;;1999.90;999.90;;;;;;;;;;5096167;27;20422;-75
2022/07/15 09:48:29;;;;;;;1999.90;999.90;;;;;;;;;;5078415;27;20457;-76
2022/07/15 09:51:00;;;;;;;1999.90;999.90;;;;;;;;;;5095215;27;20432;-74
2022/07/15 09:53:30;;;;;;;1999.90;999.90;;;;;;;;;;5080032;27;20388;-77
2022/07/15 09:55:58;;;;;;;1999.90;999.90;;;;;;;;;;5098535;27;20387;-77
2022/07/15 09:58:26;;;;;;;1999.90;999.90;;;;;;;;;;5097248;27;20988;-77
2022/07/15 10:00:54;;;;;;;1999.90;999.90;;;;;;;;;;5079488;28;20478;-76
2022/07/15 10:03:23;;;;;;;1999.90;999.90;;;;;;;;;;5077177;27;20903;-76
2022/07/15 10:05:53;;;;;;;1999.90;999.90;;;;;;;;;;5097051;27;20919;-77
2022/07/15 10:08:21;;;;;;;1999.90;999.90;;;;;;;;;;5097665;27;20436;-75
2022/07/15 10:10:51;;;;;;;1999.90;999.90;;;;;;;;;;5095837;27;20504;-76
2022/07/15 10:13:26;;;;;;;1999.90;999.90;;;;;;;;;;5096748;27;20395;-76
2022/07/15 10:15:58;;;;;;;1999.90;999.90;;;;;;;;;;5076882;27;20533;-76
2022/07/15 10:18:33;;;;;;;1999.90;999.90;;;;;;;;;;5095749;27;20408;-76
2022/07/15 10:21:08;;;;;;;1999.90;999.90;;;;;;;;;;5093898;27;21290;-77
2022/07/15 10:23:43;;;;;;;1999.90;999.90;;;;;;;;;;5097112;27;20559;-76
2022/07/15 10:26:21;;;;;;;1999.90;999.90;;;;;;;;;;5079645;27;21008;-77
2022/07/15 10:28:58;;;;;;;1999.90;999.90;;;;;;;;;;5095459;27;20433;-76
2022/07/15 10:31:27;;;;;;;1999.90;999.90;;;;;;;;;;5095581;27;20887;-76
2022/07/15 10:34:15;;;;;;;1999.90;999.90;;;;;;;;;;5095988;27;20411;-76
2022/07/15 10:36:54;;;;;;;1999.90;999.90;;;;;;;;;;5092753;27;20391;-77
2022/07/15 10:39:24;;;;;;;1999.90;999.90;;;;;;;;;;5094588;27;20383;-77
2022/07/15 10:41:54;;;;;;;1999.90;999.90;;;;;;;;;;5078320;28;20529;-75
2022/07/15 10:44:25;;;;;;;1999.90;999.90;;;;;;;;;;5097732;27;20383;-77
2022/07/15 10:47:11;;;;;;;1999.90;999.90;;;;;;;;;;5096753;27;20410;-77
2022/07/15 10:49:40;;;;;;;1999.90;999.90;;;;;;;;;;5096353;27;20492;-76
2022/07/15 10:52:15;;;;;;;1999.90;999.90;;;;;;;;;;5076610;27;20410;-77
2022/07/15 10:54:44;;;;;;;1999.90;999.90;;;;;;;;;;5097084;27;21214;-76
2022/07/15 10:57:15;;;;;;;1999.90;999.90;;;;;;;;;;5095547;27;20442;-76
2022/07/15 10:59:50;;;;;;;1999.90;999.90;;;;;;;;;;5098707;27;20407;-76
2022/07/15 11:02:20;;;;;;;1999.90;999.90;;;;;;;;;;5094014;27;20411;-76
2022/07/15 11:04:49;;;;;;;1999.90;999.90;;;;;;;;;;5077861;28;20446;-76
2022/07/15 11:07:35;;;;;;;1999.90;999.90;;;;;;;;;;5096857;27;20387;-76
2022/07/15 11:10:14;;;;;;;1999.90;999.90;;;;;;;;;;5098219;27;20380;-76
2022/07/15 11:13:00;;;;;;;1999.90;999.90;;;;;;;;;;5081017;27;20893;-76
2022/07/15 11:15:28;;;;;;;1999.90;999.90;;;;;;;;;;5099425;27;20645;-76
2022/07/15 11:17:57;;;;;;;1999.90;999.90;;;;;;;;;;5081046;27;20401;-75
2022/07/15 11:20:34;;;;;;;1999.90;999.90;;;;;;;;;;5098257;27;20403;-76
2022/07/15 11:23:03;;;;;;;1999.90;999.90;;;;;;;;;;5098139;27;20399;-76
2022/07/15 11:25:32;;;;;;;1999.90;999.90;;;;;;;;;;5097663;27;20461;-77
2022/07/15 11:28:02;;;;;;;1999.90;999.90;;;;;;;;;;5100195;27;20482;-75
2022/07/15 11:30:32;;;;;;;1999.90;999.90;;;;;;;;;;5080228;28;20407;-76
2022/07/15 11:33:01;;;;;;;1999.90;999.90;;;;;;;;;;5097774;27;20407;-76
2022/07/15 11:35:29;;;;;;;1999.90;999.90;;;;;;;;;;5100177;27;20441;-77
2022/07/15 11:37:58;;;;;;;1999.90;999.90;;;;;;;;;;5098167;27;20437;-77
2022/07/15 11:45:59;;;;;;;1999.90;999.90;;;;;;;;;;5098063;27;20406;-77
2022/07/15 11:48:27;;;;;;;1999.90;999.90;;;;;;;;;;5099996;27;20391;-77
2022/07/15 11:50:56;;;;;;;1999.90;999.90;;;;;;;;;;5097496;27;20510;-77
2022/07/15 11:53:24;;;;;;;1999.90;999.90;;;;;;;;;;5096231;27;21011;-76
2022/07/15 11:55:53;;;;;;;1999.90;999.90;;;;;;;;;;5096777;27;20422;-76
2022/07/15 11:58:30;;;;;;;1999.90;999.90;;;;;;;;;;5098633;27;20371;-74
2022/07/15 12:00:58;;;;;;;1999.90;999.90;;;;;;;;;;5099886;27;20406;-75
2022/07/15 12:03:31;;;;;;;1999.90;999.90;;;;;;;;;;5097148;27;20411;-75
2022/07/15 12:06:03;;;;;;;1999.90;999.90;;;;;;;;;;5097079;27;20383;-75
2022/07/15 12:08:35;;;;;;;1999.90;999.90;;;;;;;;;;5096257;27;20432;-78
2022/07/15 12:11:14;;;;;;;1999.90;999.90;;;;;;;;;;5096704;27;20404;-76
2022/07/15 12:13:44;;;;;;;1999.90;999.90;;;;;;;;;;5098021;27;20414;-76
2022/07/15 12:16:12;;;;;;;1999.90;999.90;;;;;;;;;;5097803;27;20407;-75
2022/07/15 12:18:41;;;;;;;1999.90;999.90;;;;;;;;;;5097551;27;20411;-75
2022/07/15 12:21:09;;;;;;;1999.90;999.90;;;;;;;;;;5095429;27;20727;-76
2022/07/15 12:23:37;;;;;;;1999.90;999.90;;;;;;;;;;5092315;27;20886;-76
2022/07/15 12:26:06;;;;;;;1999.90;999.90;;;;;;;;;;5099325;27;20418;-76
2022/07/15 12:28:35;;;;;;;1999.90;999.90;;;;;;;;;;5078218;28;20971;-74
2022/07/15 12:31:04;;;;;;;1999.90;999.90;;;;;;;;;;5096315;27;20400;-77
2022/07/15 12:33:36;;;;;;;1999.90;999.90;;;;;;;;;;5095841;27;21333;-77
2022/07/15 12:36:14;;;;;;;1999.90;999.90;;;;;;;;;;5098254;27;20390;-75
2022/07/15 12:38:43;;;;;;;1999.90;999.90;;;;;;;;;;5096149;27;20751;-76
2022/07/15 12:41:22;;;;;;;1999.90;999.90;;;;;;;;;;5095882;27;20518;-75
2022/07/15 12:43:51;;;;;;;1999.90;999.90;;;;;;;;;;5093808;27;20838;-74
2022/07/15 12:46:21;;;;;;;1999.90;999.90;;;;;;;;;;5094198;27;20445;-76
2022/07/15 12:48:49;;;;;;;1999.90;999.90;;;;;;;;;;5097818;27;20874;-77
2022/07/15 12:51:18;;;;;;;1999.90;999.90;;;;;;;;;;5111028;27;20390;-77
2022/07/15 12:53:46;;;;;;;1999.90;999.90;;;;;;;;;;5090721;27;20439;-77
2022/07/15 12:56:14;;;;;;;1999.90;999.90;;;;;;;;;;5110781;27;20404;-76
2022/07/15 12:58:42;;;;;;;1999.90;999.90;;;;;;;;;;5094014;27;20422;-77
2022/07/15 13:01:11;;;;;;;1999.90;999.90;;;;;;;;;;5091891;27;20451;-74
2022/07/15 13:03:41;;;;;;;1999.90;999.90;;;;;;;;;;5091147;27;20407;-75
2022/07/15 13:06:08;;;;;;;1999.90;999.90;;;;;;;;;;5089331;27;21318;-77
2022/07/15 13:08:37;;;;;;;1999.90;999.90;;;;;;;;;;5110398;27;20411;-75
2022/07/15 13:11:06;;;;;;;1999.90;999.90;;;;;;;;;;5091059;27;20366;-76
2022/07/15 13:13:35;;;;;;;1999.90;999.90;;;;;;;;;;5083060;27;20505;-75
2022/07/15 13:16:03;;;;;;;1999.90;999.90;;;;;;;;;;5084253;27;20390;-73
2022/07/15 13:18:31;;;;;;;1999.90;999.90;;;;;;;;;;5087393;27;20417;-77
2022/07/15 13:21:01;;;;;;;1999.90;999.90;;;;;;;;;;5086581;27;20401;-76
2022/07/15 13:23:29;;;;;;;1999.90;999.90;;;;;;;;;;5092947;27;21216;-76
2022/07/15 13:25:57;;;;;;;1999.90;999.90;;;;;;;;;;5081763;27;21932;-76
2022/07/15 13:28:25;;;;;;;1999.90;999.90;;;;;;;;;;5094607;27;20569;-75
2022/07/15 13:30:53;;;;;;;1999.90;999.90;;;;;;;;;;5091188;27;20403;-75
2022/07/15 13:33:21;;;;;;;1999.90;999.90;;;;;;;;;;5089613;27;20403;-74
2022/07/15 13:35:49;;;;;;;1999.90;999.90;;;;;;;;;;5088482;27;21322;-75
2022/07/15 13:38:18;;;;;;;1999.90;999.90;;;;;;;;;;5094668;27;21704;-75
2022/07/15 13:40:46;;;;;;;1999.90;999.90;;;;;;;;;;5089437;27;20822;-74
2022/07/15 13:43:15;;;;;;;1999.90;999.90;;;;;;;;;;5088271;27;20411;-75
2022/07/15 13:45:43;;;;;;;1999.90;999.90;;;;;;;;;;5069862;28;20387;-74
2022/07/15 13:48:14;;;;;;;1999.90;999.90;;;;;;;;;;5091726;27;20489;-73
2022/07/15 13:53:29;;;;;;;1999.90;999.90;;;;;;;;;;5090897;27;20411;-76
2022/07/15 13:55:56;;;;;;;1999.90;999.90;;;;;;;;;;5091367;27;20480;-75
2022/07/15 13:58:24;;;;;;;1999.90;999.90;;;;;;;;;;5088299;27;20494;-75
2022/07/15 14:00:52;;;;;;;1999.90;999.90;;;;;;;;;;5088238;27;20446;-73
2022/07/15 14:03:20;;;;;;;1999.90;999.90;;;;;;;;;;5087822;27;20688;-73
2022/07/15 14:05:48;;;;;;;1999.90;999.90;;;;;;;;;;5092716;27;20474;-74
2022/07/15 14:08:16;;;;;;;1999.90;999.90;;;;;;;;;;5080961;27;20473;-74
2022/07/15 14:10:45;;;;;;;1999.90;999.90;;;;;;;;;;5089015;27;20396;-74
2022/07/15 14:13:12;;;;;;;1999.90;999.90;;;;;;;;;;5089510;27;21529;-74
2022/07/15 14:15:40;;;;;;;1999.90;999.90;;;;;;;;;;5089857;27;20464;-75